Archival Weather

NSFA McMurdo Sound

NSFA McMurdo Sound, Antarctica (NZCM)

Report from: Saturday, April 1, 2023 8:55 PM UTC
Current time: Monday, July 22, 2024 10:55 AM UTC

Current weather – Weather history – Daily summaries
Weather forecast

Temperature-25.0°C (-13.0°F)
Wind chill-35.8°C (-32.4°F)
Dew point-29.7°C (-21.5°F)
Winds 9 kts (4.6 m/s, 10.4 mph) Northeast (50°)
Visibility4.3 mi. (7 km)
Clouds Sky clear
Altimeter29.84 in.Hg (1010 mB)
Relative humidity65 %
Density altitude-5,100 ft. (-1,554 m)
Sea-level pressure101.1 kPa (1011 mB, 29.86 in.Hg)
Remarks Fully automated report
Automated weather observing station with precipitation discriminator
Pressure rising more quickly
Flight conditions Marginal Visual Meteorological Conditions
Raw dataNZCM 012055Z AUTO 05009KT 7000 CLR M25/M30 A2984 RMK AO2 SLP112 T12501297 53007
An error has occurred. This application may no longer respond until reloaded. Reload 🗙